METAR Data
IDs: Format: Raw Decoded Include TAF

Data at: 0212 UTC 24 Sep 2018

KOTG 240156Z AUTO 16012KT 10SM CLR 19/12 A2989 RMK AO2 SLP120 T01940117
KOTG 240056Z AUTO 17010KT 10SM CLR 21/11 A2988 RMK AO2 SLP119 T02060111
KOTG 232356Z AUTO 16011G17KT 10SM CLR 22/11 A2987 RMK AO2 SLP115 T02220106 10250 20222 56004
KOTG 232256Z AUTO 16011G17KT 10SM FEW002 23/10 A2988 RMK AO2 SLP116 T02330100
KOTG 232251Z AUTO 16011KT 10SM FEW002 23/10 A2988 RMK AO2
KOTG 232156Z AUTO 17015G21KT 10SM CLR 25/09 A2988 RMK AO2 SLP117 T02500094
KOTG 232056Z AUTO 16017G28KT 10SM CLR 25/09 A2989 RMK AO2 PK WND 17028/2051 SLP120 T02500094 56025
KOTG 231956Z AUTO 16016G23KT 10SM CLR 24/12 A2991 RMK AO2 SLP128 T02440117
KOTG 231856Z AUTO 16016G21KT 10SM CLR 23/12 A2994 RMK AO2 SLP137 T02330117
KOTG 231756Z AUTO 18014G20KT 10SM CLR 23/12 A2997 RMK AO2 SLP147 T02280122 10228 20106 58009
KOTG 231656Z AUTO 17014G20KT 10SM CLR 21/12 A2999 RMK AO2 SLP156 T02060117
KOTG 231556Z AUTO 19017G22KT 10SM CLR 19/11 A3000 RMK AO2 SLP158 T01940111
KOTG 231456Z AUTO 19012KT 10SM CLR 17/11 A3000 RMK AO2 SLP159 T01720111 58003
KOTG 231356Z AUTO 18014KT 10SM CLR 14/09 A3000 RMK AO2 SLP162 T01390089
KOTG 231256Z AUTO 18011KT 10SM CLR 11/08 A3000 RMK AO2 SLP164 T01110083
KOTG 231156Z AUTO 19009KT 10SM CLR 11/08 A3000 RMK AO2 SLP163 60001 70002 T01060083 10122 20106 56003
KOTG 231056Z AUTO 19009KT 10SM CLR 11/08 A3000 RMK AO2 SLP162 T01110083
KOTG 230956Z AUTO 19010KT 10SM CLR 11/08 A3001 RMK AO2 SLP164 P0001 T01110083
KOTG 230856Z AUTO 19012KT 10SM CLR 11/08 A3001 RMK AO2 SLP165 T01110083 58007
KOTG 230756Z AUTO 19009KT 10SM CLR 11/08 A3003 RMK AO2 SLP173 T01110083
KOTG 230656Z AUTO 19006KT 10SM CLR 11/08 A3005 RMK AO2 SLP178 T01110083
KOTG 230556Z AUTO 17008KT 10SM CLR 12/08 A3004 RMK AO2 SLP174 T01220078 10178 20122 402000050 58006
KOTG 230456Z AUTO 18010KT 10SM CLR 13/08 A3004 RMK AO2 SLP177 T01280078
KOTG 230356Z AUTO 18009KT 10SM CLR 13/08 A3005 RMK AO2 SLP181 T01280083
KOTG 230256Z AUTO 19009KT 10SM CLR 14/08 A3005 RMK AO2 SLP183 T01390078 51007
KOTG 230156Z AUTO 17009KT 10SM CLR 14/08 A3005 RMK AO2 SLP181 T01440083
KOTG 222356Z AUTO 16010G16KT 10SM CLR 18/08 A3003 RMK AO2 SLP176 T01830078 10200 20161 56020
KOTG 222256Z AUTO 16013KT 10SM CLR 19/07 A3004 RMK AO2 SLP177 T01940072
KOTG 222156Z AUTO 16014G19KT 10SM CLR 20/07 A3005 RMK AO2 SLP182 T02000072
KOTG 222056Z AUTO 18014KT 10SM CLR 19/07 A3010 RMK AO2 SLP197 T01940072 56018
KOTG 221956Z AUTO 19014G18KT 10SM FEW002 19/07 A3012 RMK AO2 SLP205 T01890072
KOTG 221953Z AUTO 18013G18KT 10SM FEW002 19/07 A3012 RMK AO2
KOTG 221856Z AUTO 17011G17KT 10SM CLR 17/07 A3015 RMK AO2 SLP217 T01720072
KOTG 221756Z AUTO 17014G18KT 10SM CLR 16/07 A3018 RMK AO2 SLP228 60001 T01610072 10161 20067 58024
KOTG 221707Z AUTO 18014KT 10SM FEW001 14/07 A3021 RMK AO2
KOTG 221656Z AUTO 16011G18KT 10SM CLR 14/07 A3021 RMK AO2 SLP239 T01440067
KOTG 221556Z AUTO 18013KT 10SM CLR 13/07 A3024 RMK AO2 SLP251 T01280067
KOTG 221456Z AUTO 18013G20KT 10SM CLR 11/06 A3026 RMK AO2 SLP257 P0001 60001 T01060061 58006